Haslet, TX (76052)

12:18 AM CST on February 11, 2016 (GMT -0600)
Tehama Ridge | | Change Station
CLOSE
Current Station
Personal Weather Station
Location: Fort Worth, TX
Elevation: 827 ft
Nearby Weather Stations

Elev 827 ft 32.93 °N, 97.33 °W | Updated 9 minutes ago

Clear
Clear
56.7 °F
Feels Like 56.7 °F
N
4.2
Wind Variable Wind from NNE

Today
High -- | Low -- °F
--% Chance of Precip.
Yesterday
High -- | Low -- °F
Precip. -- in
Pressure 30.01 in
Visibility 10.0 miles
Clouds Clear
Dew Point 33 °F
Humidity 41%
Rainfall 0.00 in
Snow Depth Not available.
7:16 AM 6:10 PM
Waxing Crescent, 9% visible
METAR KAFW 110553Z 21007KT 10SM CLR 13/01 A3002 RMK AO2 SLP162 T01330006 10211 20133 402391033 58010
Pressure 30.01 in
Visibility 10.0 miles
Clouds Clear
Dew Point 33 °F
Humidity 41%
Rainfall 0.00 in
Snow Depth Not available.
7:16 AM 6:10 PM
Waxing Crescent, 9% visible
METAR KAFW 110553Z 21007KT 10SM CLR 13/01 A3002 RMK AO2 SLP162 T01330006 10211 20133 402391033 58010

10-Day Weather Forecast

Almanac

Astronomy

Feb. 11, 2016 Rise Set
Actual Time
Civil Twilight
Nautical Twilight
Astronomical Twilight
Moon
Length of Visible Light
Length of Day
Tomorrow will be .
, % of the Moon is Illuminated

Today's Extremes

State Highs State Lows

Community

WunderPhotos

Upload Photos

1,892,030 photos uploaded!

WunderBlog® & News

Nearby

Air Quality

  Air Quality AQ Index Pollutant
Not available.

Snow Depth

Station Depth Elevation

Earthquake Activity

City Distance Mag. Time & Date
Minimum magnitude displayed is 2.5.

Coastal Water Temperatures

Place Temperature

Stations

Nearby Weather Stations

Station Location Temp. Windchill Dew Point Humidity Wind Precip. Elev Updated Type
                   

Watches & Warnings

There are currently no watches in effect.